Time;durP1;ratioP1;P1;durP2;ratioP2;P2;SDS_P1;SDS_P2;PMS_P1;PMS_P2;Temp;Humidity;BMP_temperature;BMP_pressure;BME280_temperature;BME280_humidity;BME280_pressure;Samples;Min_cycle;Max_cycle;Signal;HPM_P1;HPM_P2
2023/03/24 00:01:04;;;;;;;7.77;3.73;;;;;;;10.74;100.00;99711.16;5261111;28;20053;-65
2023/03/24 00:03:35;;;;;;;6.47;3.38;;;;;;;10.68;100.00;99706.13;5261205;28;20029;-66
2023/03/24 00:06:12;;;;;;;7.53;4.30;;;;;;;10.70;100.00;99686.94;5262764;28;20033;-67
2023/03/24 00:08:46;;;;;;;6.88;4.32;;;;;;;10.74;100.00;99691.16;5262585;28;20040;-66
2023/03/24 00:11:19;;;;;;;9.02;3.45;;;;;;;10.84;100.00;99690.88;5261607;28;20033;-66
2023/03/24 00:13:51;;;;;;;5.05;3.22;;;;;;;10.90;100.00;99675.00;5261048;28;20037;-66
2023/03/24 00:16:23;;;;;;;6.43;2.93;;;;;;;10.97;100.00;99683.53;5262336;28;20461;-66
2023/03/24 00:18:55;;;;;;;5.63;3.28;;;;;;;11.05;100.00;99678.91;5262896;28;20449;-66
2023/03/24 00:21:27;;;;;;;5.65;3.30;;;;;;;11.10;100.00;99675.22;5262566;28;20503;-66
2023/03/24 00:24:00;;;;;;;9.20;4.13;;;;;;;11.13;100.00;99680.34;5244483;28;20033;-66
2023/03/24 00:26:31;;;;;;;7.07;3.65;;;;;;;11.23;100.00;99683.50;5261971;28;20049;-66
2023/03/24 00:29:05;;;;;;;7.70;4.03;;;;;;;11.29;100.00;99672.03;5262254;28;20389;-66
2023/03/24 00:31:38;;;;;;;8.40;3.45;;;;;;;11.34;100.00;99669.28;5262159;28;20045;-66
2023/03/24 00:34:10;;;;;;;5.72;3.42;;;;;;;11.36;100.00;99677.88;5262196;28;20029;-66
2023/03/24 00:36:41;;;;;;;8.80;3.30;;;;;;;11.42;100.00;99669.84;5262126;28;20375;-66
2023/03/24 00:39:14;;;;;;;5.50;2.73;;;;;;;11.47;100.00;99660.09;5262096;28;20043;-66
2023/03/24 00:41:46;;;;;;;6.13;3.03;;;;;;;11.49;100.00;99660.91;5262097;28;20033;-66
2023/03/24 00:44:18;;;;;;;6.88;4.22;;;;;;;11.57;100.00;99656.25;5263574;28;20122;-66
2023/03/24 00:46:56;;;;;;;5.63;3.33;;;;;;;11.55;100.00;99650.25;5265148;28;20037;-66
2023/03/24 00:49:41;;;;;;;5.60;3.72;;;;;;;11.61;100.00;99651.81;5266067;28;20029;-65
2023/03/24 00:52:19;;;;;;;4.90;2.38;;;;;;;11.67;100.00;99649.84;5266287;28;20480;-66
2023/03/24 00:54:57;;;;;;;4.95;3.08;;;;;;;11.70;100.00;99642.78;5265879;28;20037;-65
2023/03/24 00:57:33;;;;;;;6.35;2.95;;;;;;;11.71;100.00;99634.91;5265510;28;20029;-65
2023/03/24 01:00:18;;;;;;;5.90;3.78;;;;;;;11.66;100.00;99649.88;5265267;28;20061;-66
2023/03/24 01:02:52;;;;;;;7.05;4.00;;;;;;;11.63;100.00;99623.88;5265838;28;20025;-66
2023/03/24 01:05:27;;;;;;;7.45;4.10;;;;;;;11.50;100.00;99624.31;5265674;28;20114;-65
2023/03/24 01:08:02;;;;;;;4.35;2.75;;;;;;;11.50;100.00;99628.69;5265690;28;20453;-65
2023/03/24 01:10:48;;;;;;;5.68;3.42;;;;;;;11.49;100.00;99633.06;5265590;28;20033;-66
2023/03/24 01:13:26;;;;;;;5.53;2.67;;;;;;;11.47;100.00;99624.41;5266480;28;20134;-65
2023/03/24 01:15:57;;;;;;;2.90;2.08;;;;;;;11.42;100.00;99615.91;5265875;28;20025;-65
2023/03/24 01:18:29;;;;;;;5.33;3.30;;;;;;;11.34;100.00;99610.09;5247584;28;20060;-65
2023/03/24 01:21:00;;;;;;;3.97;2.20;;;;;;;11.24;100.00;99617.41;5265730;28;20037;-66
2023/03/24 01:23:33;;;;;;;6.57;2.67;;;;;;;11.26;100.00;99609.53;5265428;28;20025;-66
2023/03/24 01:26:06;;;;;;;;;;;;;;;11.21;100.00;99595.78;5265732;28;20474;-67
2023/03/24 01:28:39;;;;;;;7.80;3.15;;;;;;;11.08;100.00;99601.41;5265226;28;19916;-67
2023/03/24 01:31:11;;;;;;;4.63;2.70;;;;;;;11.03;100.00;99594.63;5265546;28;20507;-67
2023/03/24 01:33:42;;;;;;;6.63;3.00;;;;;;;10.98;100.00;99604.38;5247314;28;20041;-67
2023/03/24 01:36:14;;;;;;;6.53;3.23;;;;;;;10.94;100.00;99599.25;5265805;28;20457;-67
2023/03/24 01:38:45;;;;;;;5.10;2.80;;;;;;;10.90;100.00;99594.19;5247526;28;20033;-67
2023/03/24 01:41:17;;;;;;;4.50;3.07;;;;;;;10.93;100.00;99591.47;5265602;28;20036;-67
2023/03/24 01:43:48;;;;;;;4.67;2.80;;;;;;;10.88;100.00;99585.56;5265493;28;20057;-67
2023/03/24 01:46:21;;;;;;;6.60;2.67;;;;;;;10.88;100.00;99596.00;5265306;28;20033;-67
2023/03/24 01:49:00;;;;;;;5.68;3.13;;;;;;;10.86;100.00;99584.78;5265328;28;20036;-70
2023/03/24 01:51:37;;;;;;;3.63;2.70;;;;;;;10.91;100.00;99591.53;5265203;28;20025;-67
2023/03/24 01:54:29;;;;;;;6.07;3.42;;;;;;;10.90;100.00;99579.41;5247000;28;20029;-67
2023/03/24 01:57:10;;;;;;;3.72;2.58;;;;;;;10.87;100.00;99582.13;5264708;28;20040;-67
2023/03/24 01:59:47;;;;;;;6.30;2.85;;;;;;;10.85;100.00;99573.50;5264675;28;20473;-67
2023/03/24 02:02:20;;;;;;;6.07;2.92;;;;;;;10.86;100.00;99572.59;5264420;28;20028;-67
2023/03/24 02:04:57;;;;;;;7.53;3.15;;;;;;;10.90;100.00;99576.81;5264651;28;20495;-66
2023/03/24 02:07:35;;;;;;;4.20;3.03;;;;;;;10.88;100.00;99570.81;5247258;28;20116;-67
2023/03/24 02:10:12;;;;;;;4.72;3.40;;;;;;;10.92;100.00;99563.72;5264527;28;20372;-67
2023/03/24 02:12:44;;;;;;;5.50;3.60;;;;;;;10.88;100.00;99555.16;5265216;28;20479;-67
2023/03/24 02:15:18;;;;;;;7.80;3.43;;;;;;;10.91;100.00;99559.41;5264364;28;20070;-67
2023/03/24 02:18:17;;;;;;;5.68;3.53;;;;;;;10.85;100.00;99559.59;5264211;28;20299;-67
2023/03/24 02:21:00;;;;;;;5.90;3.28;;;;;;;10.89;100.00;99550.78;5264507;28;20044;-67
2023/03/24 02:23:54;;;;;;;6.95;3.85;;;;;;;10.84;100.00;99571.81;5264754;28;20110;-67
2023/03/24 02:27:01;;;;;;;7.97;3.80;;;;;;;10.86;100.00;99563.94;5264314;28;20029;-67
2023/03/24 02:29:50;;;;;;;6.45;3.45;;;;;;;10.87;100.00;99565.66;5264046;28;20480;-67
2023/03/24 02:32:22;;;;;;;9.25;3.78;;;;;;;10.88;100.00;99562.13;5264267;28;20484;-67
2023/03/24 02:35:55;;;;;;;8.93;4.40;;;;;;;10.84;100.00;99581.38;5263939;28;20025;-67
2023/03/24 02:38:54;;;;;;;5.60;3.67;;;;;;;10.88;100.00;99565.59;5220044;28;20022;-66
2023/03/24 02:41:35;;;;;;;6.05;3.42;;;;;;;10.87;100.00;99570.84;5264395;28;20460;-66
2023/03/24 02:44:38;;;;;;;5.63;3.55;;;;;;;10.88;100.00;99552.56;5263821;28;20524;-66
2023/03/24 02:47:23;;;;;;;6.85;4.40;;;;;;;10.86;100.00;99558.72;5264871;28;20033;-66
2023/03/24 02:49:54;;;;;;;5.93;3.55;;;;;;;10.87;100.00;99581.28;5264221;28;20044;-66
2023/03/24 02:52:45;;;;;;;4.77;3.43;;;;;;;10.87;100.00;99581.28;5263913;28;20473;-67
2023/03/24 02:55:26;;;;;;;6.78;4.03;;;;;;;10.90;100.00;99587.25;5263650;28;20461;-66
2023/03/24 02:58:08;;;;;;;5.95;3.40;;;;;;;10.90;100.00;99579.41;5263163;28;20139;-66
2023/03/24 03:00:58;;;;;;;8.13;3.88;;;;;;;10.85;100.00;99596.09;5263545;28;20124;-66
2023/03/24 03:03:44;;;;;;;4.55;3.47;;;;;;;10.92;100.00;99621.94;5263909;28;20037;-66
2023/03/24 03:06:27;;;;;;;4.88;3.80;;;;;;;10.95;100.00;99623.59;5262828;28;20075;-66
2023/03/24 03:09:03;;;;;;;6.63;3.80;;;;;;;10.93;100.00;99654.06;5263118;28;20446;-66
2023/03/24 03:11:37;;;;;;;4.88;3.30;;;;;;;10.83;100.00;99637.03;5263314;28;20065;-66
2023/03/24 03:14:25;;;;;;;5.72;2.92;;;;;;;10.74;100.00;99630.38;5263624;28;20040;-66
2023/03/24 03:17:03;;;;;;;4.30;2.35;;;;;;;10.70;100.00;99649.59;5263258;28;20438;-66
2023/03/24 03:19:39;;;;;;;3.17;2.28;;;;;;;10.64;100.00;99663.69;5263066;28;20051;-66
2023/03/24 03:22:17;;;;;;;4.75;2.33;;;;;;;10.52;100.00;99684.91;5263541;28;20093;-66
2023/03/24 03:24:52;;;;;;;3.75;2.65;;;;;;;10.40;100.00;99681.75;5262885;28;20029;-66
2023/03/24 03:27:38;;;;;;;4.38;2.22;;;;;;;10.20;100.00;99674.47;5262976;28;20118;-66
2023/03/24 03:30:22;;;;;;;4.93;2.10;;;;;;;10.05;100.00;99667.13;5262874;28;20032;-66
2023/03/24 03:33:04;;;;;;;3.97;1.92;;;;;;;9.92;100.00;99687.44;5262928;28;20122;-66
2023/03/24 03:35:44;;;;;;;6.22;2.35;;;;;;;9.86;100.00;99711.03;5262586;28;20024;-66
2023/03/24 03:38:23;;;;;;;3.28;1.85;;;;;;;9.91;100.00;99729.16;5263014;28;20032;-66
2023/03/24 03:40:58;;;;;;;3.97;1.85;;;;;;;9.95;100.00;99725.53;5263056;28;20457;-66
2023/03/24 03:43:32;;;;;;;3.35;1.95;;;;;;;9.98;100.00;99720.25;5262930;28;20041;-66
2023/03/24 03:46:06;;;;;;;7.35;3.20;;;;;;;9.88;100.00;99724.84;5262756;28;20465;-67
2023/03/24 03:48:39;;;;;;;3.83;1.52;;;;;;;9.90;100.00;99741.31;5262953;28;20033;-67
2023/03/24 03:51:12;;;;;;;4.07;2.25;;;;;;;9.85;100.00;99759.66;5261389;28;20032;-67
2023/03/24 03:53:43;;;;;;;;;;;;;;;9.81;100.00;99746.75;5263083;28;20060;-66
2023/03/24 03:56:22;;;;;;;9.30;4.20;;;;;;;9.65;100.00;99747.13;5244709;28;19951;-66
2023/03/24 03:58:56;;;;;;;12.25;4.20;;;;;;;9.66;99.78;99761.88;5262691;28;20115;-65
2023/03/24 04:01:32;;;;;;;8.82;3.60;;;;;;;9.64;98.54;99762.78;5262814;28;20392;-66
2023/03/24 04:04:20;;;;;;;7.95;4.22;;;;;;;9.53;99.63;99757.88;5245508;28;20033;-65
2023/03/24 04:07:07;;;;;;;8.80;3.72;;;;;;;9.51;99.08;99772.66;5262687;28;20358;-66
2023/03/24 04:09:56;;;;;;;6.80;2.95;;;;;;;9.49;99.54;99788.28;5262629;28;20456;-66
2023/03/24 04:12:35;;;;;;;6.90;2.90;;;;;;;9.45;100.00;99785.81;5262655;28;20029;-65
2023/03/24 04:15:12;;;;;;;8.68;3.00;;;;;;;9.40;100.00;99792.88;5261347;28;20453;-66
2023/03/24 04:18:28;;;;;;;9.10;3.17;;;;;;;9.34;100.00;99814.69;5262359;28;20448;-66
2023/03/24 04:21:27;;;;;;;7.90;2.83;;;;;;;9.36;100.00;99825.06;5264411;28;20059;-66
2023/03/24 04:24:25;;;;;;;7.03;2.53;;;;;;;9.33;100.00;99827.72;5266892;28;20460;-66
2023/03/24 04:27:37;;;;;;;7.93;2.30;;;;;;;9.27;100.00;99824.38;5266154;28;20075;-66
2023/03/24 04:30:22;;;;;;;10.13;2.53;;;;;;;9.19;100.00;99821.06;5265939;28;20037;-66
2023/03/24 04:33:06;;;;;;;7.50;2.72;;;;;;;9.18;100.00;99824.59;5265748;28;20052;-66
2023/03/24 04:35:43;;;;;;;10.55;3.45;;;;;;;9.08;100.00;99833.47;5265927;28;20433;-66
2023/03/24 04:38:22;;;;;;;7.35;2.53;;;;;;;9.19;100.00;99831.47;5266247;28;20150;-66
2023/03/24 04:40:55;;;;;;;8.93;2.63;;;;;;;9.09;100.00;99841.22;5265932;28;20059;-66
2023/03/24 04:43:35;;;;;;;10.70;2.60;;;;;;;9.05;100.00;99846.56;5266502;28;20029;-66
2023/03/24 04:46:08;;;;;;;8.48;2.42;;;;;;;8.98;100.00;99842.34;5266338;28;20025;-66
2023/03/24 04:48:39;;;;;;;;;;;;;;;8.90;100.00;99855.50;5265328;28;20113;-66
2023/03/24 04:51:11;;;;;;;9.82;2.83;;;;;;;8.78;100.00;99853.19;5265946;28;19925;-66
2023/03/24 04:53:43;;;;;;;10.70;3.47;;;;;;;8.74;100.00;99853.25;5266526;28;20097;-67
2023/03/24 04:56:48;;;;;;;8.20;3.15;;;;;;;8.81;100.00;99853.13;5266434;28;20046;-67
2023/03/24 04:59:20;;;;;;;10.48;3.42;;;;;;;8.84;100.00;99855.63;5257586;28;20041;-66
2023/03/24 05:01:51;;;;;;;13.00;3.20;;;;;;;8.75;100.00;99851.50;5266931;28;20113;-67
2023/03/24 05:04:25;;;;;;;8.70;3.67;;;;;;;8.71;100.00;99858.50;5265798;28;20025;-67
2023/03/24 05:06:56;;;;;;;11.00;3.80;;;;;;;8.69;100.00;99868.03;5265637;28;20036;-67
2023/03/24 05:09:30;;;;;;;10.30;4.23;;;;;;;8.71;100.00;99860.22;5266189;28;20465;-66
2023/03/24 05:12:02;;;;;;;12.52;4.25;;;;;;;8.64;100.00;99867.28;5265550;28;20037;-67
2023/03/24 05:14:33;;;;;;;12.03;3.77;;;;;;;8.60;100.00;99869.97;5265878;28;20116;-66
2023/03/24 05:17:04;;;;;;;6.50;2.97;;;;;;;8.55;100.00;99873.53;5247555;28;20036;-66
2023/03/24 05:19:36;;;;;;;9.67;3.70;;;;;;;8.51;100.00;99877.06;5265769;28;20036;-66
2023/03/24 05:22:07;;;;;;;9.10;3.03;;;;;;;8.49;100.00;99883.19;5265309;28;20029;-66
2023/03/24 05:24:39;;;;;;;14.97;4.87;;;;;;;8.48;100.00;99886.66;5265150;28;20043;-66
2023/03/24 05:27:10;;;;;;;11.13;3.17;;;;;;;8.51;100.00;99889.19;5265322;28;20048;-65
2023/03/24 05:29:42;;;;;;;10.87;3.47;;;;;;;8.58;100.00;99894.25;5264798;28;20041;-66
2023/03/24 05:32:14;;;;;;;10.20;3.30;;;;;;;8.62;100.00;99900.22;5265419;28;20055;-66
2023/03/24 05:34:45;;;;;;;9.80;3.25;;;;;;;8.72;100.00;99896.56;5265095;28;20029;-66
2023/03/24 05:37:17;;;;;;;8.83;3.33;;;;;;;8.71;100.00;99901.78;5265038;28;20040;-66
2023/03/24 05:39:48;;;;;;;13.07;3.10;;;;;;;8.71;100.00;99899.19;5265018;28;20060;-66
2023/03/24 05:42:20;;;;;;;8.83;3.77;;;;;;;8.68;100.00;99904.47;5265163;28;20044;-66
2023/03/24 05:44:51;;;;;;;11.63;3.43;;;;;;;8.64;100.00;99914.03;5263893;28;20112;-66
2023/03/24 05:47:22;;;;;;;11.27;3.60;;;;;;;8.70;100.00;99913.09;5263670;28;20040;-66
2023/03/24 05:49:54;;;;;;;12.93;3.27;;;;;;;8.69;100.00;99916.56;5264434;28;20037;-67
2023/03/24 05:52:26;;;;;;;15.57;4.50;;;;;;;8.67;100.00;99929.56;5265071;28;20060;-67
2023/03/24 05:54:57;;;;;;;12.57;3.73;;;;;;;8.63;100.00;99930.53;5264406;28;20033;-66
2023/03/24 05:57:33;;;;;;;14.17;3.70;;;;;;;8.63;100.00;99940.06;5264666;28;20033;-67
2023/03/24 06:00:09;;;;;;;8.73;3.03;;;;;;;8.71;100.00;99919.97;5264247;28;20465;-67
2023/03/24 06:02:41;;;;;;;14.40;4.28;;;;;;;8.69;100.00;99932.16;5265053;28;20029;-67
2023/03/24 06:05:12;;;;;;;13.07;4.90;;;;;;;8.68;100.00;99933.06;5264562;28;20036;-66
2023/03/24 06:07:43;;;;;;;16.03;6.30;;;;;;;8.70;100.00;99936.47;5264571;28;20064;-67
2023/03/24 06:10:17;;;;;;;9.53;2.70;;;;;;;8.74;100.00;99917.31;5264547;28;20033;-66
2023/03/24 06:12:48;;;;;;;16.65;3.05;;;;;;;8.78;100.00;99921.59;5264438;28;20112;-66
2023/03/24 06:15:21;;;;;;;13.03;3.37;;;;;;;8.81;100.00;99925.88;5264780;28;20119;-66
2023/03/24 06:17:54;;;;;;;12.25;3.20;;;;;;;8.87;100.00;99943.94;5264449;28;20494;-66
2023/03/24 06:20:26;;;;;;;16.33;3.22;;;;;;;8.87;99.78;99941.34;5264326;28;20120;-66
2023/03/24 06:22:58;;;;;;;10.27;2.63;;;;;;;8.83;100.00;99943.13;5264100;28;20033;-67
2023/03/24 06:25:30;;;;;;;10.00;3.23;;;;;;;8.87;99.71;99941.34;5263707;28;20154;-66
2023/03/24 06:28:03;;;;;;;9.00;3.10;;;;;;;8.93;99.02;99949.00;5246459;28;20742;-67
2023/03/24 06:30:35;;;;;;;14.70;4.22;;;;;;;8.91;99.69;99950.78;5264750;28;20078;-67
2023/03/24 06:33:08;;;;;;;13.15;3.17;;;;;;;8.95;98.38;99962.81;5246237;28;20116;-68
2023/03/24 06:35:39;;;;;;;10.48;3.72;;;;;;;8.94;98.44;99964.59;5262936;28;20037;-67
2023/03/24 06:38:11;;;;;;;16.37;3.80;;;;;;;8.94;98.96;99980.19;5263619;28;20033;-67
2023/03/24 06:40:43;;;;;;;16.35;3.22;;;;;;;9.00;97.93;99973.13;5264142;28;20029;-66
2023/03/24 06:43:15;;;;;;;13.43;3.30;;;;;;;9.04;98.50;99980.00;5245527;28;20043;-67
2023/03/24 06:45:46;;;;;;;14.83;4.43;;;;;;;9.10;98.48;99969.50;5263697;28;20025;-67
2023/03/24 06:48:17;;;;;;;12.60;3.53;;;;;;;9.20;98.84;99972.75;5264045;28;20131;-66
2023/03/24 06:50:51;;;;;;;11.63;2.90;;;;;;;9.26;97.24;99975.25;5263754;28;20445;-66
2023/03/24 06:53:22;;;;;;;15.55;4.45;;;;;;;9.28;96.71;99966.50;5263604;28;20039;-67
2023/03/24 06:55:53;;;;;;;14.53;3.53;;;;;;;9.30;97.19;99988.13;5263936;28;20033;-66
2023/03/24 06:58:25;;;;;;;21.97;4.50;;;;;;;9.33;96.62;99971.63;5264054;28;20029;-67
2023/03/24 07:00:59;;;;;;;18.27;4.63;;;;;;;9.35;97.06;99972.44;5263229;28;20056;-65
2023/03/24 07:03:30;;;;;;;18.58;4.20;;;;;;;9.41;96.33;99974.06;5263808;28;20443;-66
2023/03/24 07:06:01;;;;;;;12.50;3.53;;;;;;;9.44;96.10;99971.41;5263355;28;20107;-66
2023/03/24 07:08:34;;;;;;;17.97;4.30;;;;;;;9.45;97.21;99973.97;5263408;28;20456;-67
2023/03/24 07:11:07;;;;;;;17.90;3.75;;;;;;;9.49;96.89;99966.94;5246034;28;20460;-66
2023/03/24 07:13:38;;;;;;;10.18;3.20;;;;;;;9.50;95.88;99984.28;5263321;28;20052;-66
2023/03/24 07:16:10;;;;;;;14.77;3.50;;;;;;;9.59;94.26;99993.63;5263024;28;20025;-66
2023/03/24 07:18:41;;;;;;;14.23;2.93;;;;;;;9.64;94.53;99984.84;5263372;28;20041;-66
2023/03/24 07:21:13;;;;;;;20.10;4.43;;;;;;;9.70;94.39;99988.19;5261726;28;20171;-66
2023/03/24 07:23:44;;;;;;;18.80;4.53;;;;;;;9.71;93.87;99993.38;5261924;28;20231;-66
2023/03/24 07:26:16;;;;;;;14.40;4.57;;;;;;;9.79;93.66;99999.25;5262688;28;20028;-66
2023/03/24 07:28:47;;;;;;;11.90;4.13;;;;;;;9.85;92.75;100001.72;5262789;28;20491;-66
2023/03/24 07:31:21;;;;;;;11.43;2.90;;;;;;;9.89;93.76;99993.84;5245303;28;20048;-67
2023/03/24 07:33:52;;;;;;;17.02;4.10;;;;;;;9.89;93.45;100007.72;5262991;28;20264;-67
2023/03/24 07:36:24;;;;;;;11.87;3.53;;;;;;;9.97;92.78;100015.38;5262952;28;20123;-66
2023/03/24 07:38:55;;;;;;;14.60;4.27;;;;;;;10.03;92.52;100020.44;5262847;28;20388;-67
2023/03/24 07:41:28;;;;;;;14.37;3.40;;;;;;;10.00;92.98;100015.31;5263115;28;20115;-67
2023/03/24 07:44:00;;;;;;;16.70;4.03;;;;;;;10.01;92.72;100027.41;5263084;28;20078;-67
2023/03/24 07:46:31;;;;;;;13.17;3.90;;;;;;;10.02;93.05;100021.31;5262766;28;20044;-67
2023/03/24 07:49:02;;;;;;;13.67;3.50;;;;;;;9.98;93.17;100017.94;5245136;28;20303;-67
2023/03/24 07:51:34;;;;;;;14.23;3.43;;;;;;;10.08;94.31;100028.13;5263010;28;20037;-67
2023/03/24 07:54:05;;;;;;;13.07;4.63;;;;;;;10.20;92.85;100030.44;5263723;28;20032;-67
2023/03/24 07:56:36;;;;;;;16.77;4.43;;;;;;;10.40;93.01;100023.06;5263301;28;20037;-67
2023/03/24 07:59:08;;;;;;;16.27;4.67;;;;;;;10.60;92.59;100026.91;5262885;28;20060;-67
2023/03/24 08:01:39;;;;;;;16.97;4.00;;;;;;;10.61;90.49;100038.19;5261157;28;20072;-67
2023/03/24 08:04:12;;;;;;;15.30;4.33;;;;;;;10.66;90.26;100042.41;5262091;28;20033;-68
2023/03/24 08:06:44;;;;;;;;;;;;;;;10.88;89.67;100044.44;5262686;28;20121;-68
2023/03/24 08:09:16;;;;;;;22.55;4.35;;;;;;;10.97;88.09;100044.22;5262205;28;20412;-68
2023/03/24 08:11:47;;;;;;;14.53;3.33;;;;;;;11.23;88.59;100040.91;5244428;28;20388;-68
2023/03/24 08:14:18;;;;;;;10.10;2.73;;;;;;;11.30;86.46;100046.81;5262514;28;20120;-68
2023/03/24 08:16:50;;;;;;;12.87;4.13;;;;;;;11.32;86.63;100058.06;5244546;28;20036;-68
2023/03/24 08:19:21;;;;;;;10.30;3.13;;;;;;;11.13;85.23;100058.56;5262436;28;20044;-68
2023/03/24 08:21:52;;;;;;;15.77;4.10;;;;;;;10.99;85.76;100057.22;5245116;28;20040;-68
2023/03/24 08:24:24;;;;;;;12.73;3.50;;;;;;;11.17;85.33;100069.75;5262607;28;20037;-68
2023/03/24 08:26:58;;;;;;;14.43;3.77;;;;;;;11.10;84.15;100063.00;5261876;28;20033;-69
2023/03/24 08:29:29;;;;;;;11.02;3.42;;;;;;;11.22;84.31;100062.69;5262171;28;20037;-69
2023/03/24 08:32:01;;;;;;;10.83;4.10;;;;;;;11.35;82.22;100064.94;5262252;28;20086;-68
2023/03/24 08:34:32;;;;;;;15.60;4.33;;;;;;;11.53;81.73;100055.75;5260785;28;20114;-67
2023/03/24 08:37:03;;;;;;;11.00;3.10;;;;;;;11.75;81.35;100066.44;5244317;28;20384;-67
2023/03/24 08:39:35;;;;;;;17.20;5.17;;;;;;;11.85;80.45;100068.72;5261147;28;20036;-69
2023/03/24 08:42:06;;;;;;;11.27;3.23;;;;;;;12.19;81.29;100065.13;5261433;28;20464;-68
2023/03/24 08:44:38;;;;;;;14.87;4.03;;;;;;;12.26;78.79;100062.34;5244112;28;20093;-68
2023/03/24 08:47:09;;;;;;;13.13;4.83;;;;;;;12.29;77.79;100080.53;5262551;28;20036;-68
2023/03/24 08:49:40;;;;;;;11.20;4.23;;;;;;;11.91;77.95;100075.50;5260709;28;20033;-68
2023/03/24 08:52:12;;;;;;;10.50;3.23;;;;;;;11.71;79.02;100070.88;5262470;28;20061;-68
2023/03/24 08:54:43;;;;;;;10.70;3.50;;;;;;;11.65;80.50;100076.28;5262246;28;20056;-68
2023/03/24 08:57:16;;;;;;;12.10;3.57;;;;;;;11.58;80.04;100080.81;5244180;28;20461;-68
2023/03/24 08:59:47;;;;;;;11.75;3.08;;;;;;;11.47;81.18;100080.28;5261681;28;20108;-68
2023/03/24 09:02:19;;;;;;;8.27;3.23;;;;;;;11.41;81.01;100083.03;5261519;28;20041;-67
2023/03/24 09:04:53;;;;;;;15.07;5.70;;;;;;;11.37;80.88;100084.03;5263623;28;20526;-67
2023/03/24 09:07:25;;;;;;;13.57;3.50;;;;;;;11.43;81.00;100086.47;5266422;28;20468;-67
2023/03/24 09:09:56;;;;;;;13.33;4.63;;;;;;;11.62;79.96;100078.97;5265836;28;20029;-67
2023/03/24 09:12:27;;;;;;;13.60;3.70;;;;;;;11.69;80.11;100083.13;5265889;28;20044;-68
2023/03/24 09:14:59;;;;;;;10.70;3.20;;;;;;;11.83;79.69;100088.81;5266563;28;20167;-68
2023/03/24 09:17:31;;;;;;;10.80;2.83;;;;;;;11.73;78.35;100083.91;5265608;28;20033;-68
2023/03/24 09:20:08;;;;;;;21.55;5.03;;;;;;;11.99;78.76;100096.22;5265380;28;20163;-68
2023/03/24 09:22:43;;;;;;;11.27;3.85;;;;;;;11.87;77.83;100092.19;5265804;28;20071;-66
2023/03/24 09:25:17;;;;;;;13.25;3.90;;;;;;;11.45;78.61;100103.81;5265551;28;20025;-67
2023/03/24 09:27:49;;;;;;;14.75;3.25;;;;;;;11.51;81.27;100105.38;5265249;28;20075;-67
2023/03/24 09:30:20;;;;;;;13.53;3.40;;;;;;;11.58;81.60;100104.31;5265444;28;20071;-67
2023/03/24 09:32:52;;;;;;;15.00;3.80;;;;;;;11.66;81.11;100109.34;5265450;28;20507;-68
2023/03/24 09:35:26;;;;;;;13.50;3.60;;;;;;;11.87;79.13;100097.41;5248163;28;20076;-67
2023/03/24 09:37:57;;;;;;;11.90;3.35;;;;;;;12.09;79.06;100117.69;5265077;28;20377;-67
2023/03/24 09:40:34;;;;;;;9.33;2.53;;;;;;;12.94;76.26;100124.63;5265123;28;20032;-67
2023/03/24 09:43:15;;;;;;;12.85;3.30;;;;;;;12.56;75.23;100123.25;5264945;28;20055;-66
2023/03/24 09:45:56;;;;;;;12.10;3.85;;;;;;;11.91;78.16;100126.91;5264159;28;20025;-67
2023/03/24 09:48:38;;;;;;;10.95;2.75;;;;;;;11.78;81.02;100122.03;5264904;28;20036;-68
2023/03/24 09:51:21;;;;;;;16.13;3.38;;;;;;;11.76;79.95;100122.97;5264858;28;20029;-68
2023/03/24 09:54:12;;;;;;;15.18;5.45;;;;;;;11.72;79.95;100135.28;5264907;28;20044;-68
2023/03/24 09:56:45;;;;;;;13.18;3.40;;;;;;;11.92;78.42;100118.22;5264918;28;20036;-68
2023/03/24 09:59:19;;;;;;;12.68;3.45;;;;;;;12.15;78.41;100117.53;5264217;28;20389;-70
2023/03/24 10:01:51;;;;;;;14.80;3.92;;;;;;;12.23;78.60;100118.16;5264183;28;20049;-69
2023/03/24 10:04:25;;;;;;;11.07;3.63;;;;;;;12.08;77.55;100129.06;5263097;28;20490;-68
2023/03/24 10:07:27;;;;;;;9.65;3.47;;;;;;;11.92;77.35;100116.44;5264402;28;20021;-68
2023/03/24 10:10:00;;;;;;;9.15;2.97;;;;;;;12.06;76.26;100117.78;5235437;28;20069;-68
2023/03/24 10:12:32;;;;;;;8.20;2.47;;;;;;;12.02;75.18;100123.09;5263985;28;20090;-68
2023/03/24 10:15:07;;;;;;;14.77;4.30;;;;;;;12.24;74.85;100126.84;5264149;28;20037;-68
2023/03/24 10:18:09;;;;;;;11.27;3.10;;;;;;;12.35;74.25;100130.84;5262931;28;20036;-68
2023/03/24 10:20:52;;;;;;;13.25;3.08;;;;;;;12.32;73.12;100130.94;5264240;28;20128;-69
2023/03/24 10:23:24;;;;;;;8.60;3.80;;;;;;;12.29;72.34;100145.88;5264108;28;20429;-68
2023/03/24 10:26:01;;;;;;;12.53;3.80;;;;;;;12.32;73.54;100130.94;5264050;28;20069;-70
2023/03/24 10:28:40;;;;;;;10.55;3.38;;;;;;;12.61;71.59;100133.56;5264530;28;20025;-69
2023/03/24 10:31:15;;;;;;;8.15;2.97;;;;;;;12.85;70.50;100132.75;5264070;28;20040;-68
2023/03/24 10:33:46;;;;;;;11.50;3.10;;;;;;;13.85;66.79;100126.72;5245950;28;20025;-68
2023/03/24 10:36:20;;;;;;;9.30;3.27;;;;;;;14.72;64.22;100132.13;5263510;28;20027;-69
2023/03/24 10:38:52;;;;;;;10.68;3.25;;;;;;;15.35;61.02;100139.16;5264074;28;20299;-68
2023/03/24 10:41:26;;;;;;;12.02;3.15;;;;;;;14.83;60.72;100125.59;5263888;28;20500;-68
2023/03/24 10:43:59;;;;;;;11.60;3.28;;;;;;;14.41;62.40;100128.09;5264342;28;20021;-68
2023/03/24 10:46:31;;;;;;;12.63;3.00;;;;;;;13.84;63.23;100129.38;5263927;28;20040;-67
2023/03/24 10:49:13;;;;;;;12.03;3.03;;;;;;;13.38;65.62;100123.16;5264771;28;20032;-68
2023/03/24 10:51:48;;;;;;;12.88;2.70;;;;;;;13.54;65.77;100121.75;5263940;28;20029;-67
2023/03/24 10:54:25;;;;;;;11.68;2.47;;;;;;;13.60;66.08;100129.34;5263535;28;20490;-68
2023/03/24 10:56:56;;;;;;;11.85;3.20;;;;;;;13.06;67.28;100130.34;5263217;28;20039;-67
2023/03/24 10:59:53;;;;;;;8.90;2.77;;;;;;;13.34;67.81;100129.44;5262317;28;20024;-67
2023/03/24 11:02:28;;;;;;;9.80;2.97;;;;;;;13.75;64.78;100114.88;5263749;28;20032;-67
2023/03/24 11:05:18;;;;;;;7.38;3.03;;;;;;;14.83;62.04;100120.34;5263315;28;20376;-67
2023/03/24 11:07:50;;;;;;;14.65;3.30;;;;;;;16.12;58.00;100130.53;5262036;28;20036;-67
2023/03/24 11:10:26;;;;;;;11.88;3.22;;;;;;;16.07;56.93;100127.25;5263348;28;20190;-68
2023/03/24 11:12:58;;;;;;;11.65;3.13;;;;;;;14.89;59.20;100128.84;5263687;28;20365;-68
2023/03/24 11:15:33;;;;;;;11.70;3.42;;;;;;;14.18;60.45;100109.75;5262324;28;20025;-69
2023/03/24 11:18:10;;;;;;;12.75;3.60;;;;;;;14.11;63.27;100126.66;5263063;28;20037;-67
2023/03/24 11:20:49;;;;;;;7.80;2.78;;;;;;;14.14;62.61;100122.16;5262853;28;20047;-68
2023/03/24 11:23:44;;;;;;;10.82;2.63;;;;;;;14.38;60.39;100129.97;5262997;28;20036;-69
2023/03/24 11:26:22;;;;;;;10.18;3.40;;;;;;;14.35;59.26;100124.84;5263656;28;20029;-68
2023/03/24 11:28:57;;;;;;;11.98;3.00;;;;;;;14.08;60.18;100125.00;5263126;28;20021;-68
2023/03/24 11:31:37;;;;;;;11.85;3.00;;;;;;;13.76;61.41;100108.69;5262525;28;20115;-69
2023/03/24 11:34:24;;;;;;;8.93;2.80;;;;;;;13.60;62.60;100120.66;5263419;28;20070;-68
2023/03/24 11:37:12;;;;;;;8.48;3.30;;;;;;;12.76;67.74;100118.22;5263459;28;20028;-68
2023/03/24 11:40:14;;;;;;;10.82;2.85;;;;;;;12.45;70.21;100118.34;5263034;28;20070;-68
2023/03/24 11:42:49;;;;;;;11.60;2.95;;;;;;;12.10;70.08;100122.03;5262743;28;20028;-68
2023/03/24 11:45:39;;;;;;;7.00;2.50;;;;;;;11.51;79.45;100139.31;5262666;28;20024;-68
2023/03/24 11:48:38;;;;;;;11.70;3.53;;;;;;;10.77;84.28;100138.59;5263222;28;20038;-68
2023/03/24 11:51:14;;;;;;;12.25;3.30;;;;;;;10.32;91.14;100154.34;5262592;28;20033;-69
2023/03/24 11:53:50;;;;;;;13.98;4.15;;;;;;;9.89;99.58;100173.47;5262623;28;20029;-68
2023/03/24 11:56:35;;;;;;;12.10;3.83;;;;;;;9.47;100.00;100171.66;5263505;28;20476;-70
2023/03/24 11:59:21;;;;;;;12.00;2.92;;;;;;;9.38;100.00;100170.06;5262819;28;20028;-70
2023/03/24 12:02:15;;;;;;;12.10;3.58;;;;;;;9.27;100.00;100172.00;5262164;28;20068;-69
2023/03/24 12:04:58;;;;;;;11.63;3.40;;;;;;;9.04;100.00;100181.03;5263273;28;20472;-69
2023/03/24 12:07:52;;;;;;;15.60;4.40;;;;;;;8.99;100.00;100192.41;5262801;28;20373;-69
2023/03/24 12:10:33;;;;;;;9.77;2.30;;;;;;;8.82;100.00;100182.25;5245364;28;20083;-69